createdAt,value
2019-05-01T00:01:25.415Z,14.81
2019-05-01T00:04:10.616Z,14.61
2019-05-01T00:06:43.911Z,14.53
2019-05-01T00:09:14.993Z,14.50
2019-05-01T00:11:45.037Z,14.48
2019-05-01T00:14:15.233Z,14.37
2019-05-01T00:16:45.748Z,14.29
2019-05-01T00:19:15.984Z,14.24
2019-05-01T00:21:45.654Z,14.17
2019-05-01T00:24:15.466Z,14.17
2019-05-01T00:26:45.537Z,13.91
2019-05-01T00:29:15.375Z,13.65
2019-05-01T00:31:45.213Z,13.59
2019-05-01T00:34:14.949Z,13.55
2019-05-01T00:36:44.877Z,13.44
2019-05-01T00:39:15.213Z,13.47
2019-05-01T00:41:45.044Z,13.57
2019-05-01T00:44:14.780Z,13.57
2019-05-01T00:46:44.712Z,13.66
2019-05-01T00:49:14.637Z,13.74
2019-05-01T00:51:44.512Z,13.69
2019-05-01T00:54:14.193Z,13.69
2019-05-01T00:56:57.405Z,13.66
2019-05-01T00:59:41.448Z,13.63
2019-05-01T01:02:22.363Z,13.68
2019-05-01T01:04:52.162Z,13.70
2019-05-01T01:07:21.937Z,13.68
2019-05-01T01:09:51.848Z,13.64
2019-05-01T01:12:21.795Z,13.64
2019-05-01T01:14:51.666Z,13.64
2019-05-01T01:17:21.406Z,13.55
2019-05-01T01:19:51.318Z,13.50
2019-05-01T01:22:21.110Z,13.42
2019-05-01T01:24:51.038Z,13.42
2019-05-01T01:27:20.895Z,13.34
2019-05-01T01:29:50.886Z,13.36
2019-05-01T01:32:20.799Z,13.32
2019-05-01T01:34:50.772Z,13.39
2019-05-01T01:37:20.525Z,12.99
2019-05-01T01:39:50.575Z,12.46
2019-05-01T01:42:20.840Z,12.16
2019-05-01T01:45:08.740Z,11.92
2019-05-01T01:47:57.894Z,11.88
2019-05-01T01:50:27.895Z,11.98
2019-05-01T01:52:58.003Z,11.98
2019-05-01T01:55:27.976Z,12.01
2019-05-01T01:57:58.323Z,12.10
2019-05-01T02:00:34.085Z,12.12
2019-05-01T02:03:04.700Z,12.11
2019-05-01T02:05:38.353Z,12.12
2019-05-01T02:08:09.007Z,12.13
2019-05-01T02:10:43.101Z,12.13
2019-05-01T02:13:11.028Z,12.12
2019-05-01T02:15:40.779Z,12.29
2019-05-01T02:18:10.614Z,12.27
2019-05-01T02:20:41.055Z,12.27
2019-05-01T02:23:10.843Z,12.20
2019-05-01T02:25:42.701Z,12.21
2019-05-01T02:28:32.466Z,12.25
2019-05-01T02:31:28.265Z,12.26
2019-05-01T02:33:58.464Z,12.02
2019-05-01T02:36:29.096Z,11.79
2019-05-01T02:39:00.090Z,11.54
2019-05-01T02:41:36.738Z,11.50
2019-05-01T02:44:16.154Z,11.17
2019-05-01T02:46:49.105Z,11.19
2019-05-01T02:49:46.279Z,11.44
2019-05-01T02:52:17.228Z,11.62
2019-05-01T02:54:49.434Z,11.75
2019-05-01T02:57:22.353Z,11.86
2019-05-01T02:59:54.247Z,12.00
2019-05-01T03:02:27.101Z,12.08
2019-05-01T03:04:57.936Z,12.24
2019-05-01T03:07:31.432Z,12.24
2019-05-01T03:10:02.886Z,12.24
2019-05-01T03:12:34.462Z,12.33
2019-05-01T03:15:05.439Z,12.27
2019-05-01T03:17:47.620Z,12.27
2019-05-01T03:20:27.172Z,12.04
2019-05-01T03:23:17.524Z,12.14
2019-05-01T03:25:47.893Z,12.18
2019-05-01T03:28:18.096Z,12.29
2019-05-01T03:30:48.370Z,12.30
2019-05-01T03:33:18.383Z,12.40
2019-05-01T03:35:48.547Z,12.37
2019-05-01T03:38:19.040Z,12.17
2019-05-01T03:40:49.726Z,12.31
2019-05-01T03:43:20.038Z,12.16
2019-05-01T03:45:50.663Z,12.27
2019-05-01T03:48:21.243Z,12.37
2019-05-01T03:50:51.374Z,12.32
2019-05-01T03:53:21.327Z,11.92
2019-05-01T03:55:51.275Z,11.99
2019-05-01T03:58:21.289Z,12.02
2019-05-01T04:01:13.069Z,11.71
2019-05-01T04:03:49.801Z,11.59
2019-05-01T04:06:20.276Z,11.39
2019-05-01T04:08:50.779Z,11.23
2019-05-01T04:11:22.343Z,11.30
2019-05-01T04:13:52.337Z,11.59
2019-05-01T04:16:23.047Z,11.30
2019-05-01T04:18:52.853Z,11.15
2019-05-01T04:21:25.400Z,11.18
2019-05-01T04:23:55.079Z,11.23
2019-05-01T04:26:25.269Z,11.50
2019-05-01T04:29:20.314Z,11.70
2019-05-01T04:31:54.794Z,11.94
2019-05-01T04:34:49.545Z,12.27
2019-05-01T04:37:22.414Z,12.50
2019-05-01T04:39:52.626Z,12.66
2019-05-01T04:42:22.338Z,12.66
2019-05-01T04:44:52.450Z,12.59
2019-05-01T04:47:22.374Z,12.05
2019-05-01T04:49:53.445Z,11.75
2019-05-01T04:52:23.465Z,12.22
2019-05-01T04:54:53.458Z,11.92
2019-05-01T04:57:23.808Z,12.15
2019-05-01T04:59:53.715Z,12.36
2019-05-01T05:02:32.820Z,12.54
2019-05-01T05:05:02.878Z,13.04
2019-05-01T05:07:32.778Z,13.20
2019-05-01T05:10:02.649Z,13.54
2019-05-01T05:12:43.011Z,13.91
2019-05-01T05:15:35.118Z,14.06
2019-05-01T05:18:05.821Z,14.38
2019-05-01T05:20:35.840Z,14.80
2019-05-01T05:23:05.611Z,15.09
2019-05-01T05:25:36.094Z,15.48
2019-05-01T05:28:06.024Z,15.45
2019-05-01T05:30:37.317Z,15.60
2019-05-01T05:33:18.277Z,15.59
2019-05-01T05:35:43.693Z,15.16
2019-05-01T05:38:39.181Z,15.22
2019-05-01T05:41:09.890Z,15.25
2019-05-01T05:43:40.227Z,15.27
2019-05-01T05:46:10.434Z,15.14
2019-05-01T05:48:40.696Z,15.06
2019-05-01T05:51:49.344Z,15.06
2019-05-01T05:54:38.071Z,15.38
2019-05-01T05:57:18.125Z,15.29
2019-05-01T05:59:52.937Z,15.44
2019-05-01T06:03:02.598Z,15.39
2019-05-01T06:05:51.855Z,15.34
2019-05-01T06:08:25.454Z,15.24
2019-05-01T06:11:34.021Z,15.58
2019-05-01T06:14:22.221Z,15.59
2019-05-01T06:17:13.978Z,15.84
2019-05-01T06:19:49.749Z,15.81
2019-05-01T06:22:40.725Z,15.64
2019-05-01T06:25:22.283Z,15.51
2019-05-01T06:27:51.337Z,15.26
2019-05-01T06:30:21.147Z,15.38
2019-05-01T06:32:51.093Z,15.30
2019-05-01T06:35:20.960Z,15.21
2019-05-01T06:38:03.973Z,15.46
2019-05-01T06:40:42.419Z,15.69
2019-05-01T06:44:02.112Z,15.86
2019-05-01T06:46:47.054Z,16.07
2019-05-01T06:49:39.326Z,16.31
2019-05-01T06:52:10.363Z,15.71
2019-05-01T06:54:40.669Z,15.78
2019-05-01T06:57:11.238Z,15.97
2019-05-01T06:59:42.426Z,16.54
2019-05-01T07:02:16.129Z,16.79
2019-05-01T07:04:48.004Z,16.81
2019-05-01T07:07:27.656Z,16.88
2019-05-01T07:09:55.421Z,16.91
2019-05-01T07:12:28.714Z,16.72
2019-05-01T07:15:00.066Z,16.60
2019-05-01T07:17:30.206Z,16.48
2019-05-01T07:20:18.278Z,16.77
2019-05-01T07:22:48.735Z,16.67
2019-05-01T07:25:20.013Z,16.82
2019-05-01T07:27:53.992Z,17.35
2019-05-01T07:30:31.661Z,17.75
2019-05-01T07:33:01.999Z,17.16
2019-05-01T07:35:33.029Z,17.50
2019-05-01T07:38:03.556Z,17.71
2019-05-01T07:40:33.547Z,17.93
2019-05-01T07:43:12.596Z,17.79
2019-05-01T07:46:02.291Z,17.81
2019-05-01T07:48:41.314Z,17.40
2019-05-01T07:51:08.979Z,17.65
2019-05-01T07:53:39.626Z,17.65
2019-05-01T07:56:11.758Z,17.85
2019-05-01T07:58:41.768Z,17.86
2019-05-01T08:01:20.166Z,18.03
2019-05-01T08:03:50.008Z,18.22
2019-05-01T08:06:21.918Z,18.63
2019-05-01T08:08:51.582Z,18.13
2019-05-01T08:11:21.414Z,18.54
2019-05-01T08:13:51.163Z,18.70
2019-05-01T08:16:21.053Z,18.78
2019-05-01T08:19:04.087Z,18.83
2019-05-01T08:22:01.684Z,18.85
2019-05-01T08:24:29.736Z,18.82
2019-05-01T08:27:00.782Z,18.70
2019-05-01T08:29:58.250Z,18.90
2019-05-01T08:32:51.386Z,19.10
2019-05-01T08:35:23.604Z,18.72
2019-05-01T08:37:53.734Z,19.00
2019-05-01T08:40:26.963Z,19.15
2019-05-01T08:42:56.884Z,19.34
2019-05-01T08:45:44.690Z,19.50
2019-05-01T08:48:39.311Z,19.32
2019-05-01T08:51:09.334Z,19.41
2019-05-01T08:53:39.236Z,19.51
2019-05-01T08:56:09.846Z,19.64
2019-05-01T08:58:44.882Z,19.85
2019-05-01T09:01:15.040Z,19.61
2019-05-01T09:03:43.913Z,19.30
2019-05-01T09:06:13.753Z,19.68
2019-05-01T09:08:43.508Z,19.72
2019-05-01T09:11:13.483Z,20.06
2019-05-01T09:13:43.294Z,20.42
2019-05-01T09:16:13.360Z,20.19
2019-05-01T09:18:43.259Z,20.35
2019-05-01T09:21:13.263Z,20.09
2019-05-01T09:23:46.263Z,19.70
2019-05-01T09:26:23.138Z,19.88
2019-05-01T09:28:58.072Z,20.27
2019-05-01T09:31:33.864Z,20.91
2019-05-01T09:34:00.781Z,20.66
2019-05-01T09:36:30.782Z,20.77
2019-05-01T09:39:00.940Z,20.78
2019-05-01T09:41:38.039Z,20.58
2019-05-01T09:44:05.790Z,20.67
2019-05-01T09:46:33.919Z,21.06
2019-05-01T09:49:04.002Z,21.20
2019-05-01T09:51:58.837Z,21.06
2019-05-01T09:54:51.033Z,20.81
2019-05-01T09:57:21.015Z,21.14
2019-05-01T09:59:50.922Z,21.14
2019-05-01T10:02:20.885Z,20.72
2019-05-01T10:04:50.637Z,20.72
2019-05-01T10:07:23.850Z,20.31
2019-05-01T10:09:54.001Z,20.61
2019-05-01T10:12:23.817Z,20.61
2019-05-01T10:14:54.934Z,20.87
2019-05-01T10:17:24.726Z,21.05
2019-05-01T10:19:54.701Z,21.15
2019-05-01T10:22:24.575Z,21.18
2019-05-01T10:24:54.373Z,21.66
2019-05-01T10:27:30.802Z,21.66
2019-05-01T10:30:19.734Z,21.20
2019-05-01T10:32:57.621Z,21.26
2019-05-01T10:35:42.398Z,21.40
2019-05-01T10:38:09.514Z,21.32
2019-05-01T10:40:39.342Z,21.46
2019-05-01T10:43:10.781Z,21.31
2019-05-01T10:45:40.831Z,21.18
2019-05-01T10:48:10.672Z,21.41
2019-05-01T10:50:40.446Z,21.40
2019-05-01T10:53:10.269Z,21.46
2019-05-01T10:55:41.328Z,21.31
2019-05-01T10:58:12.888Z,21.43
2019-05-01T11:00:44.447Z,21.65
2019-05-01T11:03:15.502Z,21.54
2019-05-01T11:05:55.658Z,21.54
2019-05-01T11:08:17.879Z,21.01
2019-05-01T11:10:47.738Z,21.50
2019-05-01T11:13:17.599Z,21.17
2019-05-01T11:15:48.773Z,21.86
2019-05-01T11:18:18.540Z,21.86
2019-05-01T11:20:48.176Z,21.41
2019-05-01T11:23:18.110Z,21.70
2019-05-01T11:25:47.885Z,21.70
2019-05-01T11:28:17.889Z,21.72
2019-05-01T11:30:47.777Z,22.12
2019-05-01T11:33:35.006Z,21.95
2019-05-01T11:36:35.780Z,22.28
2019-05-01T11:39:42.103Z,22.30
2019-05-01T11:42:14.047Z,22.18
2019-05-01T11:44:43.831Z,22.42
2019-05-01T11:47:13.745Z,22.50
2019-05-01T11:49:43.617Z,22.79
2019-05-01T11:52:13.493Z,22.89
2019-05-01T11:54:43.360Z,22.43
2019-05-01T11:57:13.222Z,22.99
2019-05-01T11:59:43.246Z,23.07
2019-05-01T12:02:13.198Z,23.12
2019-05-01T12:04:43.223Z,22.66
2019-05-01T12:07:13.072Z,22.58
2019-05-01T12:09:44.049Z,22.57
2019-05-01T12:12:15.793Z,22.79
2019-05-01T12:14:45.834Z,22.73
2019-05-01T12:17:34.557Z,22.88
2019-05-01T12:20:04.879Z,22.35
2019-05-01T12:22:34.863Z,22.43
2019-05-01T12:25:06.348Z,23.00
2019-05-01T12:27:36.077Z,23.23
2019-05-01T12:30:06.434Z,23.12
2019-05-01T12:32:37.472Z,23.98
2019-05-01T12:35:07.781Z,24.35
2019-05-01T12:37:43.537Z,24.02
2019-05-01T12:40:21.608Z,23.66
2019-05-01T12:42:53.009Z,24.00
2019-05-01T12:45:22.873Z,25.14
2019-05-01T12:48:03.858Z,24.35
2019-05-01T12:50:33.814Z,25.43
2019-05-01T12:53:19.840Z,24.57
2019-05-01T12:56:08.594Z,24.04
2019-05-01T12:58:39.711Z,24.26
2019-05-01T13:01:09.597Z,24.67
2019-05-01T13:03:39.452Z,23.57
2019-05-01T13:06:09.267Z,24.02
2019-05-01T13:08:39.190Z,24.24
2019-05-01T13:11:09.150Z,24.62
2019-05-01T13:13:39.002Z,25.01
2019-05-01T13:16:08.921Z,25.48
2019-05-01T13:18:38.793Z,25.46
2019-05-01T13:21:08.420Z,25.45
2019-05-01T13:23:38.261Z,24.71
2019-05-01T13:26:25.978Z,24.37
2019-05-01T13:29:00.694Z,24.30
2019-05-01T13:31:49.321Z,24.31
2019-05-01T13:34:19.138Z,24.72
2019-05-01T13:37:02.127Z,24.65
2019-05-01T13:39:20.450Z,24.88
2019-05-01T13:41:50.316Z,24.19
2019-05-01T13:44:20.171Z,24.10
2019-05-01T13:46:50.042Z,23.86
2019-05-01T13:49:19.814Z,24.10
2019-05-01T13:51:49.661Z,24.98
2019-05-01T13:54:19.333Z,24.65
2019-05-01T13:56:49.210Z,24.40
2019-05-01T13:59:19.076Z,25.18
2019-05-01T14:01:50.404Z,25.41
2019-05-01T14:04:21.669Z,25.70
2019-05-01T14:06:51.370Z,25.75
2019-05-01T14:09:25.593Z,26.34
2019-05-01T14:11:55.406Z,25.83
2019-05-01T14:14:25.331Z,26.14
2019-05-01T14:16:55.255Z,24.70
2019-05-01T14:19:25.097Z,23.71
2019-05-01T14:24:44.189Z,26.20
2019-05-01T14:27:13.960Z,25.37
2019-05-01T14:29:43.776Z,25.67
2019-05-01T14:32:13.534Z,25.99
2019-05-01T14:34:43.311Z,25.19
2019-05-01T14:37:13.231Z,24.29
2019-05-01T14:39:44.281Z,24.03
2019-05-01T14:42:14.096Z,23.80
2019-05-01T14:44:43.991Z,23.41
2019-05-01T14:47:15.169Z,23.93
2019-05-01T14:49:44.969Z,25.19
2019-05-01T14:52:14.796Z,25.33
2019-05-01T14:54:44.737Z,25.29
2019-05-01T14:57:14.499Z,24.90
2019-05-01T14:59:44.222Z,24.27
2019-05-01T15:02:15.361Z,23.79
2019-05-01T15:04:46.496Z,23.74
2019-05-01T15:07:16.215Z,23.60
2019-05-01T15:09:47.405Z,23.50
2019-05-01T15:12:18.623Z,23.65
2019-05-01T15:15:24.178Z,23.63
2019-05-01T15:18:11.603Z,23.52
2019-05-01T15:20:41.425Z,23.58
2019-05-01T15:23:11.213Z,24.51
2019-05-01T15:25:41.045Z,25.23
2019-05-01T15:28:11.076Z,25.17
2019-05-01T15:30:41.085Z,25.00
2019-05-01T15:33:12.125Z,25.15
2019-05-01T15:35:42.023Z,24.53
2019-05-01T15:38:11.844Z,23.98
2019-05-01T15:41:04.758Z,23.59
2019-05-01T15:43:36.279Z,23.27
2019-05-01T15:46:05.960Z,23.07
2019-05-01T15:48:35.939Z,22.87
2019-05-01T15:51:05.822Z,22.72
2019-05-01T15:53:35.610Z,22.51
2019-05-01T15:56:05.487Z,22.53
2019-05-01T15:58:35.358Z,22.31
2019-05-01T16:01:05.376Z,22.19
2019-05-01T16:03:35.236Z,21.99
2019-05-01T16:06:08.149Z,21.70
2019-05-01T16:08:36.749Z,21.64
2019-05-01T16:11:13.487Z,21.32
2019-05-01T16:13:43.370Z,21.32
2019-05-01T16:16:14.545Z,21.36
2019-05-01T16:18:44.312Z,21.18
2019-05-01T16:21:14.035Z,21.16
2019-05-01T16:23:45.112Z,21.07
2019-05-01T16:26:14.971Z,21.07
2019-05-01T16:28:44.691Z,21.01
2019-05-01T16:31:14.645Z,21.01
2019-05-01T16:33:45.789Z,20.77
2019-05-01T16:36:15.571Z,20.77
2019-05-01T16:39:03.405Z,20.78
2019-05-01T16:41:33.141Z,20.71
2019-05-01T16:44:03.056Z,20.69
2019-05-01T16:46:32.921Z,20.60
2019-05-01T16:49:02.780Z,20.51
2019-05-01T16:51:32.723Z,20.61
2019-05-01T16:54:02.595Z,20.49
2019-05-01T16:56:33.737Z,20.46
2019-05-01T16:59:03.765Z,20.26
2019-05-01T17:01:44.523Z,20.13
2019-05-01T17:04:31.685Z,20.13
2019-05-01T17:07:09.566Z,20.06
2019-05-01T17:10:00.679Z,20.12
2019-05-01T17:12:34.626Z,20.00
2019-05-01T17:15:04.426Z,19.95
2019-05-01T17:17:34.165Z,19.95
2019-05-01T17:20:04.173Z,19.86
2019-05-01T17:22:33.950Z,19.82
2019-05-01T17:25:04.286Z,19.73
2019-05-01T17:27:34.089Z,19.66
2019-05-01T17:30:05.772Z,19.58
2019-05-01T17:32:39.853Z,19.60
2019-05-01T17:35:08.008Z,19.48
2019-05-01T17:37:37.949Z,19.48
2019-05-01T17:40:08.318Z,19.49
2019-05-01T17:42:38.929Z,19.50
2019-05-01T17:45:09.041Z,19.53
2019-05-01T17:47:39.490Z,19.49
2019-05-01T17:50:09.672Z,19.40
2019-05-01T17:52:39.495Z,19.01
2019-05-01T17:55:09.893Z,18.22
2019-05-01T17:57:39.765Z,18.10
2019-05-01T18:00:33.705Z,18.23
2019-05-01T18:03:31.379Z,18.47
2019-05-01T18:06:10.416Z,18.74
2019-05-01T18:08:40.241Z,18.92
2019-05-01T18:11:14.332Z,18.95
2019-05-01T18:13:41.883Z,18.94
2019-05-01T18:16:11.764Z,18.72
2019-05-01T18:18:42.069Z,18.45
2019-05-01T18:21:12.705Z,18.34
2019-05-01T18:24:01.566Z,18.54
2019-05-01T18:26:47.012Z,18.60
2019-05-01T18:29:23.131Z,18.66
2019-05-01T18:31:54.080Z,18.69
2019-05-01T18:34:24.073Z,18.76
2019-05-01T18:37:01.793Z,18.79
2019-05-01T18:39:35.268Z,18.80
2019-05-01T18:42:07.315Z,18.77
2019-05-01T18:44:37.240Z,18.81
2019-05-01T18:47:07.154Z,18.77
2019-05-01T18:49:37.212Z,18.77
2019-05-01T18:52:07.454Z,18.77
2019-05-01T18:54:37.462Z,18.74
2019-05-01T18:57:08.799Z,18.76
2019-05-01T18:59:38.573Z,18.78
2019-05-01T19:02:08.402Z,18.72
2019-05-01T19:04:39.482Z,18.70
2019-05-01T19:07:09.371Z,18.66
2019-05-01T19:09:39.966Z,18.66
2019-05-01T19:12:11.212Z,18.63
2019-05-01T19:14:41.200Z,18.59
2019-05-01T19:17:11.303Z,18.55
2019-05-01T19:19:42.355Z,18.54
2019-05-01T19:22:12.310Z,18.49
2019-05-01T19:24:42.363Z,18.42
2019-05-01T19:27:14.313Z,18.39
2019-05-01T19:29:44.055Z,18.26
2019-05-01T19:32:14.323Z,18.27
2019-05-01T19:34:44.207Z,18.18
2019-05-01T19:37:16.544Z,18.18
2019-05-01T19:39:48.973Z,18.15
2019-05-01T19:42:21.568Z,18.08
2019-05-01T19:44:51.044Z,17.97
2019-05-01T19:47:21.982Z,18.01
2019-05-01T19:49:54.309Z,17.95
2019-05-01T19:52:23.736Z,17.92
2019-05-01T19:54:54.928Z,17.89
2019-05-01T19:57:24.598Z,17.80
2019-05-01T19:59:54.533Z,17.75
2019-05-01T20:02:25.693Z,17.70
2019-05-01T20:04:55.388Z,17.67
2019-05-01T20:07:25.315Z,17.61
2019-05-01T20:09:57.373Z,17.55
2019-05-01T20:12:29.803Z,17.59
2019-05-01T20:14:59.083Z,17.54
2019-05-01T20:17:29.329Z,17.58
2019-05-01T20:19:59.078Z,17.58
2019-05-01T20:22:29.033Z,17.57
2019-05-01T20:24:58.998Z,17.51
2019-05-01T20:27:28.722Z,17.56
2019-05-01T20:29:58.586Z,17.48
2019-05-01T20:32:28.773Z,17.53
2019-05-01T20:34:59.474Z,17.56
2019-05-01T20:37:29.253Z,17.55
2019-05-01T20:40:10.386Z,17.53
2019-05-01T20:42:30.564Z,17.49
2019-05-01T20:45:05.370Z,17.43
2019-05-01T20:47:35.286Z,17.39
2019-05-01T20:50:05.386Z,17.34
2019-05-01T20:52:35.218Z,17.29
2019-05-01T20:55:05.565Z,17.26
2019-05-01T20:57:37.053Z,16.80
2019-05-01T21:00:11.261Z,16.79
2019-05-01T21:02:42.887Z,16.57
2019-05-01T21:05:29.735Z,15.79
2019-05-01T21:08:07.535Z,14.97
2019-05-01T21:11:06.058Z,14.53
2019-05-01T21:13:34.398Z,14.21
2019-05-01T21:16:04.653Z,14.12
2019-05-01T21:18:34.549Z,14.27
2019-05-01T21:21:04.479Z,14.40
2019-05-01T21:23:34.531Z,14.70
2019-05-01T21:26:04.412Z,14.83
2019-05-01T21:28:34.220Z,14.98
2019-05-01T21:31:04.181Z,15.08
2019-05-01T21:33:34.278Z,15.07
2019-05-01T21:36:08.349Z,14.96
2019-05-01T21:38:35.971Z,14.83
2019-05-01T21:41:05.778Z,14.95
2019-05-01T21:43:37.155Z,15.02
2019-05-01T21:46:06.997Z,15.04
2019-05-01T21:48:36.719Z,15.10
2019-05-01T21:51:07.453Z,15.09
2019-05-01T21:53:42.041Z,14.95
2019-05-01T21:56:09.731Z,15.00
2019-05-01T21:58:39.548Z,15.10
2019-05-01T22:01:09.446Z,15.09
2019-05-01T22:03:40.363Z,15.09
2019-05-01T22:06:11.404Z,15.08
2019-05-01T22:08:41.892Z,15.11
2019-05-01T22:11:12.157Z,15.14
2019-05-01T22:13:42.136Z,15.10
2019-05-01T22:16:22.259Z,14.97
2019-05-01T22:18:58.640Z,14.76
2019-05-01T22:21:50.397Z,14.62
2019-05-01T22:24:39.226Z,14.47
2019-05-01T22:27:16.545Z,14.28
2019-05-01T22:29:52.373Z,13.97
2019-05-01T22:32:36.002Z,13.59
2019-05-01T22:35:30.990Z,13.34
2019-05-01T22:38:00.809Z,13.33
2019-05-01T22:40:40.121Z,13.20
2019-05-01T22:43:09.949Z,13.05
2019-05-01T22:45:40.969Z,13.05
2019-05-01T22:48:10.870Z,13.13
2019-05-01T22:50:40.673Z,13.21
2019-05-01T22:53:13.081Z,13.10
2019-05-01T22:55:42.062Z,13.06
2019-05-01T22:58:11.981Z,12.96
2019-05-01T23:00:53.674Z,12.96
2019-05-01T23:03:27.848Z,12.92
2019-05-01T23:06:02.036Z,12.88
2019-05-01T23:08:29.539Z,12.74
2019-05-01T23:10:59.253Z,12.62
2019-05-01T23:13:29.414Z,12.52
2019-05-01T23:15:59.459Z,12.50
2019-05-01T23:18:29.314Z,12.36
2019-05-01T23:20:59.132Z,12.24
2019-05-01T23:23:29.072Z,12.13
2019-05-01T23:25:58.868Z,12.20
2019-05-01T23:28:28.576Z,12.35
2019-05-01T23:30:58.757Z,12.33
2019-05-01T23:33:28.617Z,12.25
2019-05-01T23:35:58.534Z,12.20
2019-05-01T23:38:28.621Z,12.09
2019-05-01T23:40:58.381Z,12.10
2019-05-01T23:43:29.048Z,12.09
2019-05-01T23:45:58.930Z,12.11
2019-05-01T23:48:28.634Z,12.20
2019-05-01T23:50:58.386Z,12.38
2019-05-01T23:53:28.281Z,12.47
2019-05-01T23:55:59.948Z,12.47
2019-05-01T23:58:29.800Z,12.65
